createdAt,value
2015-04-30T00:00:02.064Z,95554
2015-04-30T00:00:20.517Z,95552
2015-04-30T00:00:38.939Z,95549
2015-04-30T00:00:57.519Z,95554
2015-04-30T00:01:16.019Z,95551
2015-04-30T00:01:34.409Z,95560
2015-04-30T00:01:52.834Z,95554
2015-04-30T00:02:11.256Z,95563
2015-04-30T00:02:29.678Z,95551
2015-04-30T00:02:48.100Z,95560
2015-04-30T00:03:06.494Z,95554
2015-04-30T00:03:24.900Z,95557
2015-04-30T00:03:43.525Z,95557
2015-04-30T00:04:02.136Z,95562
2015-04-30T00:04:20.527Z,95557
2015-04-30T00:04:39.058Z,95554
2015-04-30T00:04:57.542Z,95562
2015-04-30T00:05:16.138Z,95559
2015-04-30T00:05:34.763Z,95556
2015-04-30T00:05:53.576Z,95556
2015-04-30T00:06:12.015Z,95556
2015-04-30T00:06:30.937Z,95551
2015-04-30T00:06:49.453Z,95554
2015-04-30T00:07:07.862Z,95551
2015-04-30T00:07:26.346Z,95548
2015-04-30T00:07:45.018Z,95559
2015-04-30T00:08:03.426Z,95554
2015-04-30T00:08:21.864Z,95551
2015-04-30T00:08:40.645Z,95554
2015-04-30T00:08:59.036Z,95554
2015-04-30T00:09:17.460Z,95556
2015-04-30T00:09:35.850Z,95559
2015-04-30T00:09:54.475Z,95562
2015-04-30T00:10:13.041Z,95556
2015-04-30T00:10:31.619Z,95556
2015-04-30T00:10:50.010Z,95551
2015-04-30T00:11:08.543Z,95562
2015-04-30T00:11:27.027Z,95553
2015-04-30T00:11:45.418Z,95562
2015-04-30T00:12:03.842Z,95562
2015-04-30T00:12:22.404Z,95547
2015-04-30T00:12:40.842Z,95562
2015-04-30T00:12:59.391Z,95559
2015-04-30T00:13:17.797Z,95553
2015-04-30T00:13:36.375Z,95559
2015-04-30T00:13:54.953Z,95550
2015-04-30T00:14:13.487Z,95553
2015-04-30T00:14:32.144Z,95547
2015-04-30T00:14:50.956Z,95556
2015-04-30T00:15:09.442Z,95556
2015-04-30T00:15:27.911Z,95550
2015-04-30T00:15:46.302Z,95558
2015-04-30T00:16:04.774Z,95558
2015-04-30T00:16:23.149Z,95541
2015-04-30T00:16:41.852Z,95544
2015-04-30T00:17:00.258Z,95550
2015-04-30T00:17:18.666Z,95549
2015-04-30T00:17:37.088Z,95555
2015-04-30T00:17:55.494Z,95549
2015-04-30T00:18:13.887Z,95549
2015-04-30T00:18:32.403Z,95549
2015-04-30T00:18:50.793Z,95549
2015-04-30T00:19:09.215Z,95552
2015-04-30T00:19:27.671Z,95552
2015-04-30T00:19:46.077Z,95558
2015-04-30T00:20:04.515Z,95541
2015-04-30T00:20:22.924Z,95549
2015-04-30T00:20:41.377Z,95543
2015-04-30T00:20:59.815Z,95552
2015-04-30T00:21:18.252Z,95555
2015-04-30T00:21:36.676Z,95549
2015-04-30T00:21:55.145Z,95557
2015-04-30T00:22:13.551Z,95546
2015-04-30T00:22:32.007Z,95546
2015-04-30T00:22:50.429Z,95546
2015-04-30T00:23:08.867Z,95557
2015-04-30T00:23:27.320Z,95551
2015-04-30T00:23:45.728Z,95554
2015-04-30T00:24:04.166Z,95560
2015-04-30T00:24:22.587Z,95560
2015-04-30T00:24:41.027Z,95560
2015-04-30T00:24:59.527Z,95551
2015-04-30T00:25:17.996Z,95551
2015-04-30T00:25:36.418Z,95551
2015-04-30T00:25:54.874Z,95554
2015-04-30T00:26:13.342Z,95554
2015-04-30T00:26:31.858Z,95554
2015-04-30T00:26:50.314Z,95557
2015-04-30T00:27:08.986Z,95551
2015-04-30T00:27:27.439Z,95554
2015-04-30T00:27:45.892Z,95557
2015-04-30T00:28:04.518Z,95554
2015-04-30T00:28:23.284Z,95551
2015-04-30T00:28:42.362Z,95545
2015-04-30T00:29:01.021Z,95545
2015-04-30T00:29:19.568Z,95545
2015-04-30T00:29:37.959Z,95548
2015-04-30T00:29:56.381Z,95557
2015-04-30T00:30:14.806Z,95548
2015-04-30T00:30:33.493Z,95551
2015-04-30T00:30:52.149Z,95542
2015-04-30T00:31:10.636Z,95553
2015-04-30T00:31:29.151Z,95559
2015-04-30T00:31:47.792Z,95553
2015-04-30T00:32:06.325Z,95548
2015-04-30T00:32:25.138Z,95553
2015-04-30T00:32:43.919Z,95548
2015-04-30T00:33:02.500Z,95550
2015-04-30T00:33:21.172Z,95547
2015-04-30T00:33:39.750Z,95547
2015-04-30T00:33:58.203Z,95547
2015-04-30T00:34:17.002Z,95553
2015-04-30T00:34:35.486Z,95553
2015-04-30T00:34:53.955Z,95553
2015-04-30T00:35:12.911Z,95553
2015-04-30T00:35:31.411Z,95556
2015-04-30T00:35:50.208Z,95559
2015-04-30T00:36:08.695Z,95556
2015-04-30T00:36:27.320Z,95564
2015-04-30T00:36:45.913Z,95558
2015-04-30T00:37:04.507Z,95550
2015-04-30T00:37:23.025Z,95555
2015-04-30T00:37:41.759Z,95538
2015-04-30T00:38:00.181Z,95558
2015-04-30T00:38:18.587Z,95553
2015-04-30T00:38:36.997Z,95558
2015-04-30T00:38:55.497Z,95555
2015-04-30T00:39:14.013Z,95561
2015-04-30T00:39:32.453Z,95550
2015-04-30T00:39:50.843Z,95558
2015-04-30T00:40:08.687Z,95561
2015-04-30T00:40:27.156Z,95550
2015-04-30T00:40:45.673Z,95552
2015-04-30T00:41:04.158Z,95552
2015-04-30T00:41:23.048Z,95558
2015-04-30T00:41:41.442Z,95555
2015-04-30T00:41:59.864Z,95561
2015-04-30T00:42:18.536Z,95561
2015-04-30T00:42:37.067Z,95566
2015-04-30T00:42:55.664Z,95549
2015-04-30T00:43:14.086Z,95549
2015-04-30T00:43:32.554Z,95555
2015-04-30T00:43:50.963Z,95558
2015-04-30T00:44:09.634Z,95549
2015-04-30T00:44:28.134Z,95546
2015-04-30T00:44:46.634Z,95555
2015-04-30T00:45:05.261Z,95549
2015-04-30T00:45:23.683Z,95555
2015-04-30T00:45:42.215Z,95544
2015-04-30T00:46:01.092Z,95555
2015-04-30T00:46:19.935Z,95549
2015-04-30T00:46:38.513Z,95557
2015-04-30T00:46:57.032Z,95557
2015-04-30T00:47:15.423Z,95549
2015-04-30T00:47:33.923Z,95554
2015-04-30T00:47:52.563Z,95554
2015-04-30T00:48:11.315Z,95557
2015-04-30T00:48:30.112Z,95548
2015-04-30T00:48:48.518Z,95554
2015-04-30T00:49:07.005Z,95548
2015-04-30T00:49:25.442Z,95539
2015-04-30T00:49:44.364Z,95556
2015-04-30T00:50:03.289Z,95556
2015-04-30T00:50:22.086Z,95556
2015-04-30T00:50:40.633Z,95556
2015-04-30T00:50:59.070Z,95556
2015-04-30T00:51:17.682Z,95545
2015-04-30T00:51:36.135Z,95556
2015-04-30T00:51:54.541Z,95556
2015-04-30T00:52:13.137Z,95564
2015-04-30T00:52:31.715Z,95553
2015-04-30T00:52:50.246Z,95550
2015-04-30T00:53:09.062Z,95553
2015-04-30T00:53:27.452Z,95553
2015-04-30T00:53:45.390Z,95547
2015-04-30T00:54:03.999Z,95556
2015-04-30T00:54:22.612Z,95553
2015-04-30T00:54:41.080Z,95541
2015-04-30T00:54:59.518Z,95550
2015-04-30T00:55:18.082Z,95553
2015-04-30T00:55:36.551Z,95561
2015-04-30T00:55:55.207Z,95553
2015-04-30T00:56:13.692Z,95559
2015-04-30T00:56:32.225Z,95559
2015-04-30T00:56:51.178Z,95556
2015-04-30T00:57:09.584Z,95558
2015-04-30T00:57:28.040Z,95556
2015-04-30T00:57:46.431Z,95555
2015-04-30T00:58:04.994Z,95558
2015-04-30T00:58:23.619Z,95558
2015-04-30T00:58:42.199Z,95552
2015-04-30T00:59:00.933Z,95555
2015-04-30T00:59:19.527Z,95552
2015-04-30T00:59:37.920Z,95549
2015-04-30T00:59:56.342Z,95546
2015-04-30T01:00:14.905Z,95546
2015-04-30T01:00:33.389Z,95552
2015-04-30T01:00:51.986Z,95552
2015-04-30T01:01:10.470Z,95544
2015-04-30T01:01:29.048Z,95549
2015-04-30T01:01:47.550Z,95549
2015-04-30T01:02:06.066Z,95552
2015-04-30T01:02:24.472Z,95563
2015-04-30T01:02:43.113Z,95555
2015-04-30T01:03:01.850Z,95552
2015-04-30T01:03:20.272Z,95552
2015-04-30T01:03:38.772Z,95552
2015-04-30T01:03:57.227Z,95555
2015-04-30T01:04:15.118Z,95549
2015-04-30T01:04:33.696Z,95552
2015-04-30T01:04:52.149Z,95558
2015-04-30T01:05:10.652Z,95552
2015-04-30T01:05:29.465Z,95552
2015-04-30T01:05:48.074Z,95558
2015-04-30T01:06:06.498Z,95555
2015-04-30T01:06:24.935Z,95552
2015-04-30T01:06:43.639Z,95558
2015-04-30T01:07:02.187Z,95555
2015-04-30T01:07:20.750Z,95560
2015-04-30T01:07:39.328Z,95555
2015-04-30T01:07:58.047Z,95543
2015-04-30T01:08:16.815Z,95560
2015-04-30T01:08:35.347Z,95549
2015-04-30T01:08:54.034Z,95560
2015-04-30T01:09:12.489Z,95555
2015-04-30T01:09:32.114Z,95557
2015-04-30T01:09:50.646Z,95554
2015-04-30T01:10:09.257Z,95563
2015-04-30T01:10:27.648Z,95554
2015-04-30T01:10:46.226Z,95566
2015-04-30T01:11:04.741Z,95560
2015-04-30T01:11:23.197Z,95560
2015-04-30T01:11:41.807Z,95554
2015-04-30T01:12:00.447Z,95557
2015-04-30T01:12:19.247Z,95557
2015-04-30T01:12:37.700Z,95557
2015-04-30T01:12:56.200Z,95554
2015-04-30T01:13:14.575Z,95560
2015-04-30T01:13:33.390Z,95552
2015-04-30T01:13:51.843Z,95563
2015-04-30T01:14:10.374Z,95552
2015-04-30T01:14:28.955Z,95563
2015-04-30T01:14:47.346Z,95554
2015-04-30T01:15:05.924Z,95554
2015-04-30T01:15:24.799Z,95557
2015-04-30T01:15:43.207Z,95552
2015-04-30T01:16:01.598Z,95560
2015-04-30T01:16:20.442Z,95563
2015-04-30T01:16:39.069Z,95557
2015-04-30T01:16:57.694Z,95557
2015-04-30T01:17:16.444Z,95563
2015-04-30T01:17:35.022Z,95557
2015-04-30T01:17:53.603Z,95557
2015-04-30T01:18:12.041Z,95563
2015-04-30T01:18:30.556Z,95563
2015-04-30T01:18:49.058Z,95571
2015-04-30T01:19:07.589Z,95574
2015-04-30T01:19:26.168Z,95568
2015-04-30T01:19:44.668Z,95563
2015-04-30T01:20:03.185Z,95563
2015-04-30T01:20:21.951Z,95560
2015-04-30T01:20:40.576Z,95580
2015-04-30T01:20:58.970Z,95560
2015-04-30T01:21:17.580Z,95566
2015-04-30T01:21:36.205Z,95569
2015-04-30T01:21:54.627Z,95569
2015-04-30T01:22:13.206Z,95566
2015-04-30T01:22:31.675Z,95571
2015-04-30T01:22:50.128Z,95566
2015-04-30T01:23:08.787Z,95572
2015-04-30T01:23:27.381Z,95566
2015-04-30T01:23:45.865Z,95572
2015-04-30T01:24:04.477Z,95563
2015-04-30T01:24:23.212Z,95563
2015-04-30T01:24:41.946Z,95566
2015-04-30T01:25:00.479Z,95563
2015-04-30T01:25:19.261Z,95569
2015-04-30T01:25:37.667Z,95566
2015-04-30T01:25:56.370Z,95569
2015-04-30T01:26:14.888Z,95575
2015-04-30T01:26:33.528Z,95572
2015-04-30T01:26:51.981Z,95566
2015-04-30T01:27:10.422Z,95566
2015-04-30T01:27:28.875Z,95572
2015-04-30T01:27:47.281Z,95566
2015-04-30T01:28:05.752Z,95575
2015-04-30T01:28:24.299Z,95575
2015-04-30T01:28:43.111Z,95569
2015-04-30T01:29:01.692Z,95566
2015-04-30T01:29:20.176Z,95575
2015-04-30T01:29:38.567Z,95569
2015-04-30T01:29:57.285Z,95572
2015-04-30T01:30:15.710Z,95566
2015-04-30T01:30:34.241Z,95572
2015-04-30T01:30:53.132Z,95569
2015-04-30T01:31:11.665Z,95563
2015-04-30T01:31:30.243Z,95569
2015-04-30T01:31:48.650Z,95566
2015-04-30T01:32:07.199Z,95563
2015-04-30T01:32:26.027Z,95575
2015-04-30T01:32:44.745Z,95574
2015-04-30T01:33:03.232Z,95569
2015-04-30T01:33:21.701Z,95566
2015-04-30T01:33:40.341Z,95569
2015-04-30T01:33:58.935Z,95575
2015-04-30T01:34:17.578Z,95572
2015-04-30T01:34:36.062Z,95574
2015-04-30T01:34:54.624Z,95575
2015-04-30T01:35:13.174Z,95569
2015-04-30T01:35:31.706Z,95575
2015-04-30T01:35:50.377Z,95569
2015-04-30T01:36:08.880Z,95572
2015-04-30T01:36:27.474Z,95572
2015-04-30T01:36:45.927Z,95572
2015-04-30T01:37:04.755Z,95566
2015-04-30T01:37:23.226Z,95560
2015-04-30T01:37:42.054Z,95566
2015-04-30T01:38:00.429Z,95572
2015-04-30T01:38:18.898Z,95560
2015-04-30T01:38:37.870Z,95572
2015-04-30T01:38:56.276Z,95563
2015-04-30T01:39:14.714Z,95572
2015-04-30T01:39:33.106Z,95575
2015-04-30T01:39:51.591Z,95569
2015-04-30T01:40:10.075Z,95580
2015-04-30T01:40:28.637Z,95572
2015-04-30T01:40:47.031Z,95578
2015-04-30T01:41:05.500Z,95578
2015-04-30T01:41:24.109Z,95560
2015-04-30T01:41:42.611Z,95563
2015-04-30T01:42:01.111Z,95569
2015-04-30T01:42:19.549Z,95578
2015-04-30T01:42:38.142Z,95569
2015-04-30T01:42:56.660Z,95575
2015-04-30T01:43:15.363Z,95572
2015-04-30T01:43:34.019Z,95575
2015-04-30T01:43:52.726Z,95575
2015-04-30T01:44:11.397Z,95575
2015-04-30T01:44:29.960Z,95583
2015-04-30T01:44:48.525Z,95578
2015-04-30T01:45:07.041Z,95578
2015-04-30T01:45:25.713Z,95583
2015-04-30T01:45:44.432Z,95572
2015-04-30T01:46:03.121Z,95563
2015-04-30T01:46:21.590Z,95578
2015-04-30T01:46:40.184Z,95566
2015-04-30T01:46:58.765Z,95566
2015-04-30T01:47:17.312Z,95581
2015-04-30T01:47:35.718Z,95575
2015-04-30T01:47:54.218Z,95572
2015-04-30T01:48:12.703Z,95572
2015-04-30T01:48:31.281Z,95575
2015-04-30T01:48:49.688Z,95578
2015-04-30T01:49:08.159Z,95578
2015-04-30T01:49:26.784Z,95575
2015-04-30T01:49:45.347Z,95578
2015-04-30T01:50:03.833Z,95581
2015-04-30T01:50:22.271Z,95578
2015-04-30T01:50:40.708Z,95575
2015-04-30T01:50:59.177Z,95583
2015-04-30T01:51:17.632Z,95592
2015-04-30T01:51:36.226Z,95592
2015-04-30T01:51:54.773Z,95586
2015-04-30T01:52:13.290Z,95586
2015-04-30T01:52:31.947Z,95592
2015-04-30T01:52:50.478Z,95592
2015-04-30T01:53:09.059Z,95580
2015-04-30T01:53:27.700Z,95578
2015-04-30T01:53:46.231Z,95580
2015-04-30T01:54:04.670Z,95583
2015-04-30T01:54:23.124Z,95586
2015-04-30T01:54:48.483Z,95589
2015-04-30T01:55:07.032Z,95580
2015-04-30T01:55:26.032Z,95586
2015-04-30T01:55:44.516Z,95583
2015-04-30T01:56:03.129Z,95577
2015-04-30T01:56:21.707Z,95580
2015-04-30T01:56:40.144Z,95580
2015-04-30T01:56:58.879Z,95583
2015-04-30T01:57:17.724Z,95589
2015-04-30T01:57:36.396Z,95597
2015-04-30T01:57:54.849Z,95583
2015-04-30T01:58:13.587Z,95586
2015-04-30T01:58:32.102Z,95589
2015-04-30T01:58:50.993Z,95592
2015-04-30T01:59:09.417Z,95580
2015-04-30T01:59:27.932Z,95594
2015-04-30T01:59:46.479Z,95594
2015-04-30T02:00:05.386Z,95586
2015-04-30T02:00:24.123Z,95589
2015-04-30T02:00:42.592Z,95600
2015-04-30T02:01:01.232Z,95592
2015-04-30T02:01:19.828Z,95597
2015-04-30T02:01:38.375Z,95592
2015-04-30T02:01:57.094Z,95583
2015-04-30T02:02:15.500Z,95591
2015-04-30T02:02:33.987Z,95589
2015-04-30T02:02:52.565Z,95589
2015-04-30T02:03:11.300Z,95594
2015-04-30T02:03:29.850Z,95583
2015-04-30T02:03:48.287Z,95594
2015-04-30T02:04:06.865Z,95597
2015-04-30T02:04:25.365Z,95594
2015-04-30T02:04:43.774Z,95594
2015-04-30T02:05:02.430Z,95595
2015-04-30T02:05:21.008Z,95595
2015-04-30T02:05:39.524Z,95592
2015-04-30T02:05:58.151Z,95586
2015-04-30T02:06:16.619Z,95595
2015-04-30T02:06:35.385Z,95597
2015-04-30T02:06:54.091Z,95589
2015-04-30T02:07:12.794Z,95594
2015-04-30T02:07:31.341Z,95603
2015-04-30T02:07:49.890Z,95586
2015-04-30T02:08:08.437Z,95594
2015-04-30T02:08:26.890Z,95594
2015-04-30T02:08:45.421Z,95594
2015-04-30T02:09:03.893Z,95597
2015-04-30T02:09:22.565Z,95597
2015-04-30T02:09:41.252Z,95597
2015-04-30T02:09:59.676Z,95600
2015-04-30T02:10:18.207Z,95594
2015-04-30T02:10:36.645Z,95594
2015-04-30T02:10:55.239Z,95591
2015-04-30T02:11:13.632Z,95600
2015-04-30T02:11:32.320Z,95597
2015-04-30T02:11:51.117Z,95591
2015-04-30T02:12:09.556Z,95600
2015-04-30T02:12:27.962Z,95591
2015-04-30T02:12:46.369Z,95583
2015-04-30T02:13:04.900Z,95591
2015-04-30T02:13:23.403Z,95591
2015-04-30T02:13:41.919Z,95594
2015-04-30T02:14:00.465Z,95591
2015-04-30T02:14:18.887Z,95602
2015-04-30T02:14:37.515Z,95597
2015-04-30T02:14:56.000Z,95597
2015-04-30T02:15:14.593Z,95597
2015-04-30T02:15:33.361Z,95597
2015-04-30T02:15:51.814Z,95597
2015-04-30T02:16:10.470Z,95597
2015-04-30T02:16:28.845Z,95591
2015-04-30T02:16:47.239Z,95602
2015-04-30T02:17:05.708Z,95597
2015-04-30T02:17:24.177Z,95600
2015-04-30T02:17:42.757Z,95602
2015-04-30T02:18:01.257Z,95597
2015-04-30T02:18:19.850Z,95605
2015-04-30T02:18:38.444Z,95597
2015-04-30T02:18:57.228Z,95600
2015-04-30T02:19:15.822Z,95591
2015-04-30T02:19:34.244Z,95600
2015-04-30T02:19:52.949Z,95597
2015-04-30T02:20:11.637Z,95597
2015-04-30T02:20:30.074Z,95603
2015-04-30T02:20:48.842Z,95597
2015-04-30T02:21:07.279Z,95594
2015-04-30T02:21:25.826Z,95605
2015-04-30T02:21:44.404Z,95600
2015-04-30T02:22:02.939Z,95600
2015-04-30T02:22:21.439Z,95597
2015-04-30T02:22:39.954Z,95605
2015-04-30T02:22:58.439Z,95600
2015-04-30T02:23:17.128Z,95605
2015-04-30T02:23:35.519Z,95594
2015-04-30T02:23:54.206Z,95600
2015-04-30T02:24:12.631Z,95597
2015-04-30T02:24:31.053Z,95605
2015-04-30T02:24:49.819Z,95597
2015-04-30T02:25:08.399Z,95594
2015-04-30T02:25:27.164Z,95594
2015-04-30T02:25:45.727Z,95595
2015-04-30T02:26:04.151Z,95597
2015-04-30T02:26:22.604Z,95600
2015-04-30T02:26:41.135Z,95603
2015-04-30T02:26:59.526Z,95595
2015-04-30T02:27:17.982Z,95595
2015-04-30T02:27:36.591Z,95595
2015-04-30T02:27:55.263Z,95598
2015-04-30T02:28:13.734Z,95595
2015-04-30T02:28:32.249Z,95597
2015-04-30T02:28:50.734Z,95595
2015-04-30T02:29:09.249Z,95597
2015-04-30T02:29:27.706Z,95597
2015-04-30T02:29:46.081Z,95600
2015-04-30T02:30:04.471Z,95595
2015-04-30T02:30:22.942Z,95595
2015-04-30T02:30:41.395Z,95589
2015-04-30T02:31:00.004Z,95597
2015-04-30T02:31:18.442Z,95605
2015-04-30T02:31:36.897Z,95600
2015-04-30T02:31:55.428Z,95603
2015-04-30T02:32:13.913Z,95597
2015-04-30T02:32:32.322Z,95605
2015-04-30T02:32:51.009Z,95605
2015-04-30T02:33:09.463Z,95613
2015-04-30T02:33:27.947Z,95597
2015-04-30T02:33:46.543Z,95597
2015-04-30T02:34:04.996Z,95594
2015-04-30T02:34:23.730Z,95594
2015-04-30T02:34:42.327Z,95605
2015-04-30T02:35:01.046Z,95605
2015-04-30T02:35:19.468Z,95605
2015-04-30T02:35:38.017Z,95607
2015-04-30T02:35:56.486Z,95607
2015-04-30T02:36:15.017Z,95607
2015-04-30T02:36:33.611Z,95597
2015-04-30T02:36:52.364Z,95594
2015-04-30T02:37:10.458Z,95603
2015-04-30T02:37:29.130Z,95603
2015-04-30T02:37:47.677Z,95607
2015-04-30T02:38:06.304Z,95600
2015-04-30T02:38:24.944Z,95605
2015-04-30T02:38:42.851Z,95600
2015-04-30T02:39:01.306Z,95597
2015-04-30T02:39:19.962Z,95600
2015-04-30T02:39:38.478Z,95603
2015-04-30T02:39:56.915Z,95610
2015-04-30T02:40:15.434Z,95613
2015-04-30T02:40:34.090Z,95603
2015-04-30T02:40:52.824Z,95602
2015-04-30T02:41:11.326Z,95607
2015-04-30T02:41:29.983Z,95602
2015-04-30T02:41:48.561Z,95607
2015-04-30T02:42:07.047Z,95610
2015-04-30T02:42:25.625Z,95602
2015-04-30T02:42:44.219Z,95602
2015-04-30T02:43:02.784Z,95602
2015-04-30T02:43:21.222Z,95613
2015-04-30T02:43:40.003Z,95602
2015-04-30T02:43:58.894Z,95613
2015-04-30T02:44:17.490Z,95605
2015-04-30T02:44:36.005Z,95610
2015-04-30T02:44:54.474Z,95600
2015-04-30T02:45:13.163Z,95607
2015-04-30T02:45:31.663Z,95602
2015-04-30T02:45:50.242Z,95610
2015-04-30T02:46:08.806Z,95605
2015-04-30T02:46:27.181Z,95607
2015-04-30T02:46:45.634Z,95602
2015-04-30T02:47:04.089Z,95610
2015-04-30T02:47:22.699Z,95599
2015-04-30T02:47:41.199Z,95602
2015-04-30T02:47:59.746Z,95599
2015-04-30T02:48:18.311Z,95607
2015-04-30T02:48:37.045Z,95610
2015-04-30T02:48:55.436Z,95610
2015-04-30T02:49:13.970Z,95613
2015-04-30T02:49:32.580Z,95607
2015-04-30T02:49:51.095Z,95615
2015-04-30T02:50:09.769Z,95607
2015-04-30T02:50:28.394Z,95607
2015-04-30T02:50:46.816Z,95615
2015-04-30T02:51:05.363Z,95607
2015-04-30T02:51:24.052Z,95609
2015-04-30T02:51:42.584Z,95605
2015-04-30T02:52:01.271Z,95607
2015-04-30T02:52:19.662Z,95607
2015-04-30T02:52:38.055Z,95607
2015-04-30T02:52:56.649Z,95607
2015-04-30T02:53:15.399Z,95602
2015-04-30T02:53:33.807Z,95610
2015-04-30T02:53:52.245Z,95610
2015-04-30T02:54:10.667Z,95607
2015-04-30T02:54:29.057Z,95599
2015-04-30T02:54:47.685Z,95610
2015-04-30T02:55:06.232Z,95602
2015-04-30T02:55:24.623Z,95602
2015-04-30T02:55:43.032Z,95605
2015-04-30T02:56:01.532Z,95607
2015-04-30T02:56:20.095Z,95605
2015-04-30T02:56:38.470Z,95612
2015-04-30T02:56:56.940Z,95610
2015-04-30T02:57:15.394Z,95607
2015-04-30T02:57:33.909Z,95605
2015-04-30T02:57:52.364Z,95605
2015-04-30T02:58:10.802Z,95607
2015-04-30T02:58:29.474Z,95594
2015-04-30T02:58:47.849Z,95599
2015-04-30T02:59:06.352Z,95602
2015-04-30T02:59:24.852Z,95615
2015-04-30T02:59:43.570Z,95602
2015-04-30T03:00:02.214Z,95607
2015-04-30T03:00:20.620Z,95605
2015-04-30T03:00:39.323Z,95597
2015-04-30T03:00:57.997Z,95605
2015-04-30T03:01:16.732Z,95605
2015-04-30T03:01:35.154Z,95607
2015-04-30T03:01:53.560Z,95610
2015-04-30T03:02:11.999Z,95607
2015-04-30T03:02:30.749Z,95605
2015-04-30T03:02:49.249Z,95605
2015-04-30T03:03:07.737Z,95605
2015-04-30T03:03:26.346Z,95602
2015-04-30T03:03:44.768Z,95602
2015-04-30T03:04:03.254Z,95607
2015-04-30T03:04:21.707Z,95599
2015-04-30T03:04:40.426Z,95602
2015-04-30T03:04:58.957Z,95607
2015-04-30T03:05:17.381Z,95607
2015-04-30T03:05:35.772Z,95602
2015-04-30T03:05:54.163Z,95612
2015-04-30T03:06:12.681Z,95610
2015-04-30T03:06:31.275Z,95610
2015-04-30T03:06:49.697Z,95615
2015-04-30T03:07:08.324Z,95607
2015-04-30T03:07:26.918Z,95605
2015-04-30T03:07:45.589Z,95599
2015-04-30T03:08:04.076Z,95605
2015-04-30T03:08:22.607Z,95607
2015-04-30T03:08:41.201Z,95597
2015-04-30T03:08:59.688Z,95605
2015-04-30T03:09:18.204Z,95609
2015-04-30T03:09:36.829Z,95605
2015-04-30T03:09:55.235Z,95605
2015-04-30T03:10:13.643Z,95599
2015-04-30T03:10:32.221Z,95602
2015-04-30T03:10:50.706Z,95606
2015-04-30T03:11:09.114Z,95604
2015-04-30T03:11:27.630Z,95599
2015-04-30T03:11:46.395Z,95604
2015-04-30T03:12:04.944Z,95606
2015-04-30T03:12:23.366Z,95606
2015-04-30T03:12:41.929Z,95606
2015-04-30T03:13:00.600Z,95612
2015-04-30T03:13:19.087Z,95598
2015-04-30T03:13:37.743Z,95604
2015-04-30T03:13:56.274Z,95601
2015-04-30T03:14:14.715Z,95606
2015-04-30T03:14:33.418Z,95598
2015-04-30T03:14:52.074Z,95598
2015-04-30T03:15:10.465Z,95601
2015-04-30T03:15:28.952Z,95604
2015-04-30T03:15:47.499Z,95598
2015-04-30T03:16:06.046Z,95598
2015-04-30T03:16:24.470Z,95603
2015-04-30T03:16:43.095Z,95600
2015-04-30T03:17:01.610Z,95597
2015-04-30T03:17:20.110Z,95603
2015-04-30T03:17:38.724Z,95608
2015-04-30T03:17:57.130Z,95608
2015-04-30T03:18:15.771Z,95603
2015-04-30T03:18:34.200Z,95605
2015-04-30T03:18:52.591Z,95603
2015-04-30T03:19:11.012Z,95607
2015-04-30T03:19:29.497Z,95603
2015-04-30T03:19:47.924Z,95600
2015-04-30T03:20:06.377Z,95605
2015-04-30T03:20:24.830Z,95600
2015-04-30T03:20:43.275Z,95605
2015-04-30T03:21:01.806Z,95603
2015-04-30T03:21:20.416Z,95603
2015-04-30T03:21:39.010Z,95613
2015-04-30T03:21:57.592Z,95603
2015-04-30T03:22:16.061Z,95603
2015-04-30T03:22:34.467Z,95605
2015-04-30T03:22:52.875Z,95603
2015-04-30T03:23:11.453Z,95608
2015-04-30T03:23:29.875Z,95597
2015-04-30T03:23:48.312Z,95608
2015-04-30T03:24:06.947Z,95603
2015-04-30T03:24:26.119Z,95603
2015-04-30T03:24:45.322Z,95605
2015-04-30T03:25:03.832Z,95605
2015-04-30T03:25:22.348Z,95603
2015-04-30T03:25:40.973Z,95605
2015-04-30T03:25:59.591Z,95603
2015-04-30T03:26:18.044Z,95600
2015-04-30T03:26:36.622Z,95600
2015-04-30T03:26:55.107Z,95603
2015-04-30T03:27:13.616Z,95600
2015-04-30T03:27:32.272Z,95605
2015-04-30T03:27:50.835Z,95611
2015-04-30T03:28:09.122Z,95611
2015-04-30T03:28:27.622Z,95605
2015-04-30T03:28:46.294Z,95605
2015-04-30T03:29:04.971Z,95610
2015-04-30T03:29:23.533Z,95600
2015-04-30T03:29:41.955Z,95619
2015-04-30T03:30:00.549Z,95607
2015-04-30T03:30:19.053Z,95607
2015-04-30T03:30:37.756Z,95616
2015-04-30T03:30:56.178Z,95610
2015-04-30T03:31:14.709Z,95613
2015-04-30T03:31:33.151Z,95605
2015-04-30T03:31:51.839Z,95605
2015-04-30T03:32:10.698Z,95599
2015-04-30T03:32:29.376Z,95605
2015-04-30T03:32:47.892Z,95605
2015-04-30T03:33:06.532Z,95596
2015-04-30T03:33:25.064Z,95607
2015-04-30T03:33:43.519Z,95605
2015-04-30T03:34:02.097Z,95612
2015-04-30T03:34:20.628Z,95607
2015-04-30T03:34:39.148Z,95610
2015-04-30T03:34:57.851Z,95607
2015-04-30T03:35:16.492Z,95607
2015-04-30T03:35:35.183Z,95610
2015-04-30T03:35:53.902Z,95607
2015-04-30T03:36:12.417Z,95605
2015-04-30T03:36:31.011Z,95612
2015-04-30T03:36:49.561Z,95612
2015-04-30T03:37:07.952Z,95615
2015-04-30T03:37:26.952Z,95610
2015-04-30T03:37:45.345Z,95607
2015-04-30T03:38:03.908Z,95610
2015-04-30T03:38:22.298Z,95612
2015-04-30T03:38:40.752Z,95612
2015-04-30T03:38:59.348Z,95624
2015-04-30T03:39:17.895Z,95605
2015-04-30T03:39:36.286Z,95610
2015-04-30T03:39:54.723Z,95610
2015-04-30T03:40:13.132Z,95612
2015-04-30T03:40:31.585Z,95615
2015-04-30T03:40:50.303Z,95607
2015-04-30T03:41:08.822Z,95613
2015-04-30T03:41:27.260Z,95610
2015-04-30T03:41:45.885Z,95605
2015-04-30T03:42:04.278Z,95612
2015-04-30T03:42:22.747Z,95612
2015-04-30T03:42:41.481Z,95607
2015-04-30T03:42:59.906Z,95612
2015-04-30T03:43:18.328Z,95606
2015-04-30T03:43:37.062Z,95615
2015-04-30T03:43:55.687Z,95615
2015-04-30T03:44:14.236Z,95618
2015-04-30T03:44:33.408Z,95609
2015-04-30T03:44:51.877Z,95618
2015-04-30T03:45:10.441Z,95615
2015-04-30T03:45:28.879Z,95612
2015-04-30T03:45:47.520Z,95618
2015-04-30T03:46:06.287Z,95612
2015-04-30T03:46:24.818Z,95606
2015-04-30T03:46:43.631Z,95621
2015-04-30T03:47:02.025Z,95612
2015-04-30T03:47:20.837Z,95615
2015-04-30T03:47:39.462Z,95618
2015-04-30T03:47:57.978Z,95609
2015-04-30T03:48:16.574Z,95609
2015-04-30T03:48:35.356Z,95606
2015-04-30T03:48:53.809Z,95615
2015-04-30T03:49:12.498Z,95615
2015-04-30T03:49:31.030Z,95609
2015-04-30T03:49:49.561Z,95615
2015-04-30T03:50:07.967Z,95604
2015-04-30T03:50:26.501Z,95609
2015-04-30T03:50:44.986Z,95606
2015-04-30T03:51:03.501Z,95606
2015-04-30T03:51:21.956Z,95626
2015-04-30T03:51:40.488Z,95618
2015-04-30T03:51:59.300Z,95602
2015-04-30T03:52:17.818Z,95605
2015-04-30T03:52:36.208Z,95615
2015-04-30T03:52:54.630Z,95618
2015-04-30T03:53:13.224Z,95618
2015-04-30T03:53:31.665Z,95615
2015-04-30T03:53:50.102Z,95615
2015-04-30T03:54:08.852Z,95621
2015-04-30T03:54:27.274Z,95623
2015-04-30T03:54:45.682Z,95615
2015-04-30T03:55:04.073Z,95623
2015-04-30T03:55:22.698Z,95617
2015-04-30T03:55:41.279Z,95617
2015-04-30T03:55:59.857Z,95620
2015-04-30T03:56:18.638Z,95626
2015-04-30T03:56:37.060Z,95611
2015-04-30T03:56:55.704Z,95614
2015-04-30T03:57:14.376Z,95620
2015-04-30T03:57:32.813Z,95620
2015-04-30T03:57:51.268Z,95617
2015-04-30T03:58:09.862Z,95617
2015-04-30T03:58:28.378Z,95614
2015-04-30T03:58:47.003Z,95614